Ariana Afghan B734 at Kabul on Nov 7th 2014, gear collapse on landing

Last Update: November 12, 2014 / 16:31:34 GMT/Zulu time

Bookmark this article
Incident Facts

Date of incident
Nov 7, 2014

Classification
Accident

Flight number
FG-252

Aircraft Registration
YA-PIE

Aircraft Type
Boeing 737-400

ICAO Type Designator
B734

Airport ICAO Code
OAKB

An Ariana Afghan Airlines Boeing 737-400, registration YA-PIE performing flight FG-252 from Herat to Kabul (Afghanistan), landed on Kabul's runway 29 at about 15:00L (10:30Z) but suffered the collapse of its right hand main gear. The aircraft came to a stop on the runway resting on nose gear, left main gear and right hand engine pod, the aircraft was evacuated via slides. No injuries occurred, the aircraft sustained substantial damage.

Metars:
OAKB 071250Z 20007KT 9000 FEW040 10/M03 Q1019 NOSIG RMK BLU BLU
OAKB 071150Z 19011KT 9999 FEW045 11/M05 Q1019 NOSIG RMK BLU BLU
OAKB 071050Z 19011KT 9999 FEW055 12/M06 Q1018 NOSIG RMK BLU BLU
OAKB 070950Z 17012KT 130V210 9999 FEW045 12/M05 Q1019 NOSIG RMK BLU BLU
OAKB 070850Z 20012KT 9999 FEW045 12/M05 Q1019 NOSIG RMK BLU BLU
OAKB 070750Z 21008KT 9000 FEW040 12/M03 Q1019 NOSIG RMK BLU BLU
OAKB 070650Z 20010KT 7000 FEW040 11/M01 Q1020 NOSIG RMK WHT BLU
OAKB 070610Z 18511KT 6000 FEW030 10/M01 Q1020 RMK WHT
OAKB 070550Z 17010KT 5000 HZ NSC 10/M02 Q1020 BECMG 7000 NSW RMK WHT WHT
Incident Facts

Date of incident
Nov 7, 2014

Classification
Accident

Flight number
FG-252

Aircraft Registration
YA-PIE

Aircraft Type
Boeing 737-400

ICAO Type Designator
B734

Airport ICAO Code
OAKB

This article is published under license from Avherald.com. © of text by Avherald.com.
Article source

You can read 2 more free articles without a subscription.

Subscribe now and continue reading without any limits!

Are you a subscriber? Login
Subscribe

Read unlimited articles and receive our daily update briefing. Gain better insights into what is happening in commercial aviation safety.

Free newsletter

Want to know more and stay ahead? Get our free weekly newsletter and join 5471 existing subscribers.

By subscribing, you accept our terms and conditions and confirm that you've read our privacy policy.

Send tip

Support AeroInside by sending a small tip amount.

Related articles

Newest articles

Subscribe today

Are you researching aviation incidents? Get access to AeroInside Insights, unlimited read access and receive the daily newsletter.

Pick your plan and subscribe

Partner

Blockaviation logo

A new way to document and demonstrate airworthiness compliance and aircraft value. Find out more.

Virtual Speech logo

ELITE Simulation Solutions is a leading global provider of Flight Simulation Training Devices, IFR training software as well as flight controls and related services. Find out more.

Get updates

Never miss an article from AeroInside. Subscribe to our free weekly newsletter and join 5471 existing subscribers.

By subscribing, you accept our terms and conditions and that you've read our privacy policy.

AeroInside Blog
Popular aircraft
Airbus A320
Boeing 737-800
Boeing 737-800 MAX
Popular airlines
American Airlines
United
Delta
Air Canada
Lufthansa
British Airways